createdAt,value
2023-03-16T00:01:08.622Z,11.70
2023-03-16T00:03:39.700Z,12.40
2023-03-16T00:06:10.729Z,12.30
2023-03-16T00:08:43.615Z,13.20
2023-03-16T00:11:14.061Z,13.40
2023-03-16T00:13:44.563Z,13.60
2023-03-16T00:16:16.855Z,13.90
2023-03-16T00:18:47.681Z,14.40
2023-03-16T00:21:18.181Z,12.00
2023-03-16T00:23:48.722Z,10.30
2023-03-16T00:26:19.413Z,12.00
2023-03-16T00:28:49.928Z,11.90
2023-03-16T00:31:24.966Z,12.10
2023-03-16T00:33:55.838Z,14.70
2023-03-16T00:36:26.460Z,10.90
2023-03-16T00:38:57.299Z,10.90
2023-03-16T00:41:28.147Z,11.90
2023-03-16T00:43:58.623Z,13.00
2023-03-16T00:46:29.304Z,13.30
2023-03-16T00:48:59.944Z,13.80
2023-03-16T00:51:33.687Z,12.00
2023-03-16T00:54:05.587Z,12.80
2023-03-16T00:56:36.261Z,12.10
2023-03-16T00:59:06.895Z,9.60
2023-03-16T01:01:37.497Z,11.90
2023-03-16T01:04:09.388Z,9.00
2023-03-16T01:06:40.097Z,11.20
2023-03-16T01:09:10.839Z,10.80
2023-03-16T01:11:43.182Z,11.40
2023-03-16T01:14:13.957Z,14.90
2023-03-16T01:16:46.069Z,13.10
2023-03-16T01:19:17.149Z,13.70
2023-03-16T01:21:47.554Z,14.30
2023-03-16T01:24:19.614Z,14.80
2023-03-16T01:26:50.265Z,13.00
2023-03-16T01:29:20.820Z,13.50
2023-03-16T01:31:51.853Z,15.30
2023-03-16T01:36:52.797Z,13.90
2023-03-16T01:39:30.774Z,14.40
2023-03-16T01:42:01.445Z,14.50
2023-03-16T01:44:45.699Z,14.90
2023-03-16T01:47:16.365Z,15.70
2023-03-16T01:49:48.315Z,12.40
2023-03-16T01:52:23.389Z,14.80
2023-03-16T01:54:58.220Z,14.70
2023-03-16T01:57:36.871Z,14.10
2023-03-16T02:00:14.720Z,16.30
2023-03-16T02:02:48.594Z,14.70
2023-03-16T02:05:31.970Z,13.40
2023-03-16T02:08:05.192Z,12.80
2023-03-16T02:10:37.024Z,14.90
2023-03-16T02:13:07.960Z,13.90
2023-03-16T02:15:39.027Z,16.00
2023-03-16T02:18:10.966Z,15.60
2023-03-16T02:20:48.835Z,17.20
2023-03-16T02:23:22.170Z,17.00
2023-03-16T02:25:58.873Z,16.70
2023-03-16T02:28:37.005Z,15.50
2023-03-16T02:31:10.808Z,17.40
2023-03-16T02:33:43.621Z,15.10
2023-03-16T02:36:16.243Z,13.80
2023-03-16T02:38:47.420Z,14.30
2023-03-16T02:41:22.248Z,15.80
2023-03-16T02:44:07.109Z,15.20
2023-03-16T02:46:43.509Z,15.90
2023-03-16T02:49:19.953Z,15.70
2023-03-16T02:51:50.885Z,14.30
2023-03-16T02:54:25.637Z,14.90
2023-03-16T02:56:56.398Z,15.50
2023-03-16T02:59:27.399Z,15.20
2023-03-16T03:01:58.300Z,14.50
2023-03-16T03:04:29.027Z,13.20
2023-03-16T03:07:04.608Z,14.10
2023-03-16T03:09:37.147Z,15.10
2023-03-16T03:12:08.889Z,16.10
2023-03-16T03:14:40.323Z,13.20
2023-03-16T03:19:41.329Z,14.30
2023-03-16T03:22:12.666Z,15.50
2023-03-16T03:27:12.217Z,14.50
2023-03-16T03:29:44.648Z,12.50
2023-03-16T03:32:15.589Z,10.80
2023-03-16T03:34:46.077Z,13.10
2023-03-16T03:37:17.049Z,14.10
2023-03-16T03:39:48.442Z,11.40
2023-03-16T03:42:19.521Z,11.30
2023-03-16T03:44:50.080Z,11.40
2023-03-16T03:47:21.652Z,11.10
2023-03-16T03:49:52.206Z,12.90
2023-03-16T03:52:23.984Z,11.10
2023-03-16T03:54:54.501Z,10.80
2023-03-16T03:57:25.145Z,11.90
2023-03-16T03:59:55.977Z,11.00
2023-03-16T04:02:45.558Z,11.00
2023-03-16T04:05:27.514Z,11.30
2023-03-16T04:07:59.313Z,11.50
2023-03-16T04:10:31.652Z,12.30
2023-03-16T04:13:02.888Z,12.10
2023-03-16T04:15:38.376Z,10.40
2023-03-16T04:18:19.382Z,10.60
2023-03-16T04:20:49.960Z,13.00
2023-03-16T04:23:22.787Z,13.50
2023-03-16T04:28:26.360Z,10.50
2023-03-16T04:30:56.986Z,9.60
2023-03-16T04:33:33.183Z,9.20
2023-03-16T04:36:03.955Z,12.60
2023-03-16T04:43:43.309Z,11.30
2023-03-16T04:46:21.457Z,9.50
2023-03-16T04:48:52.235Z,10.40
2023-03-16T04:51:22.764Z,8.80
2023-03-16T04:54:02.400Z,11.00
2023-03-16T04:56:37.422Z,8.90
2023-03-16T04:59:12.056Z,10.10
2023-03-16T05:01:50.148Z,7.70
2023-03-16T05:04:22.059Z,8.30
2023-03-16T05:06:54.514Z,8.10
2023-03-16T05:09:28.358Z,9.00
2023-03-16T05:11:59.613Z,9.30
2023-03-16T05:14:35.975Z,7.60
2023-03-16T05:17:32.932Z,8.00
2023-03-16T05:20:08.011Z,8.40
2023-03-16T05:22:38.934Z,9.20
2023-03-16T05:25:29.836Z,9.30
2023-03-16T05:28:02.561Z,8.90
2023-03-16T05:30:53.488Z,8.60
2023-03-16T05:33:27.878Z,9.00
2023-03-16T05:36:04.910Z,10.70
2023-03-16T05:38:36.851Z,11.40
2023-03-16T05:41:08.770Z,9.00
2023-03-16T05:43:51.622Z,12.30
2023-03-16T05:46:25.376Z,9.60
2023-03-16T05:48:56.270Z,10.80
2023-03-16T05:51:27.402Z,8.10
2023-03-16T05:53:58.439Z,8.80
2023-03-16T05:56:45.802Z,9.90
2023-03-16T05:59:17.895Z,11.50
2023-03-16T06:01:51.968Z,9.40
2023-03-16T06:04:23.991Z,9.40
2023-03-16T06:06:54.630Z,12.10
2023-03-16T06:09:28.060Z,9.80
2023-03-16T06:11:58.655Z,10.30
2023-03-16T06:14:30.301Z,11.60
2023-03-16T06:17:01.657Z,11.50
2023-03-16T06:19:32.829Z,10.80
2023-03-16T06:22:04.576Z,8.60
2023-03-16T06:27:04.819Z,10.50
2023-03-16T06:29:40.169Z,10.70
2023-03-16T06:32:11.320Z,9.70
2023-03-16T06:34:43.153Z,11.40
2023-03-16T06:37:14.266Z,10.30
2023-03-16T06:39:47.678Z,10.70
2023-03-16T06:42:18.292Z,10.00
2023-03-16T06:44:48.931Z,11.30
2023-03-16T06:47:19.877Z,10.90
2023-03-16T06:49:51.838Z,11.50
2023-03-16T06:52:30.117Z,14.30
2023-03-16T06:55:03.455Z,12.60
2023-03-16T06:57:34.482Z,11.10
2023-03-16T07:00:07.306Z,10.20
2023-03-16T07:02:41.155Z,10.80
2023-03-16T07:05:14.129Z,10.70
2023-03-16T07:07:45.542Z,9.50
2023-03-16T07:10:18.343Z,11.60
2023-03-16T07:12:50.392Z,11.10
2023-03-16T07:15:21.916Z,12.00
2023-03-16T07:17:53.694Z,9.60
2023-03-16T07:20:27.046Z,11.30
2023-03-16T07:22:57.892Z,11.30
2023-03-16T07:25:28.869Z,13.30
2023-03-16T07:27:59.420Z,11.10
2023-03-16T07:30:33.341Z,10.90
2023-03-16T07:33:05.350Z,11.10
2023-03-16T07:35:36.642Z,9.20
2023-03-16T07:38:07.371Z,11.60
2023-03-16T07:40:42.146Z,9.90
2023-03-16T07:43:17.896Z,12.40
2023-03-16T07:45:54.557Z,10.70
2023-03-16T07:48:26.035Z,10.50
2023-03-16T07:51:03.405Z,10.50
2023-03-16T07:53:34.350Z,13.50
2023-03-16T07:56:17.840Z,13.10
2023-03-16T07:58:50.240Z,11.10
2023-03-16T08:01:22.564Z,10.40
2023-03-16T08:03:53.579Z,10.40
2023-03-16T08:06:25.531Z,12.50
2023-03-16T08:08:56.254Z,11.50
2023-03-16T08:11:32.460Z,12.90
2023-03-16T08:14:05.972Z,9.80
2023-03-16T08:16:56.841Z,11.20
2023-03-16T08:19:28.618Z,10.40
2023-03-16T08:22:02.051Z,9.30
2023-03-16T08:24:38.561Z,10.60
2023-03-16T08:27:11.497Z,9.10
2023-03-16T08:29:43.519Z,10.60
2023-03-16T08:32:17.148Z,9.30
2023-03-16T08:34:48.325Z,8.60
2023-03-16T08:37:19.031Z,10.60
2023-03-16T08:39:51.523Z,10.10
2023-03-16T08:42:22.353Z,9.50
2023-03-16T08:45:00.912Z,8.40
2023-03-16T08:47:32.789Z,8.20
2023-03-16T08:50:06.132Z,9.30
2023-03-16T08:52:37.586Z,9.40
2023-03-16T08:55:10.990Z,8.20
2023-03-16T08:57:45.161Z,7.90
2023-03-16T09:00:17.996Z,9.00
2023-03-16T09:02:48.695Z,7.30
2023-03-16T09:05:19.410Z,7.40
2023-03-16T09:07:50.397Z,8.40
2023-03-16T09:10:23.133Z,10.00
2023-03-16T09:12:54.063Z,6.70
2023-03-16T09:15:24.865Z,7.70
2023-03-16T09:17:57.476Z,8.70
2023-03-16T09:20:30.053Z,7.20
2023-03-16T09:23:01.378Z,10.20
2023-03-16T09:25:32.632Z,7.10
2023-03-16T09:30:32.993Z,7.40
2023-03-16T09:33:04.290Z,7.20
2023-03-16T09:40:39.577Z,7.10
2023-03-16T09:43:24.987Z,7.70
2023-03-16T09:46:05.527Z,6.40
2023-03-16T09:48:38.754Z,8.10
2023-03-16T09:51:18.659Z,6.30
2023-03-16T09:53:50.740Z,6.60
2023-03-16T09:56:29.192Z,7.30
2023-03-16T09:59:01.114Z,5.20
2023-03-16T10:01:42.085Z,6.40
2023-03-16T10:04:26.618Z,5.50
2023-03-16T10:07:06.641Z,7.70
2023-03-16T10:09:44.118Z,5.80
2023-03-16T10:12:17.358Z,6.90
2023-03-16T10:14:55.735Z,7.30
2023-03-16T10:17:31.827Z,5.60
2023-03-16T10:20:09.169Z,6.30
2023-03-16T10:22:52.811Z,5.60
2023-03-16T10:25:29.104Z,6.20
2023-03-16T10:27:59.935Z,6.80
2023-03-16T10:36:11.644Z,7.40
2023-03-16T10:38:47.040Z,5.80
2023-03-16T10:41:28.764Z,4.70
2023-03-16T10:44:06.279Z,5.80
2023-03-16T10:46:43.162Z,6.20
2023-03-16T10:49:27.201Z,5.50
2023-03-16T10:52:01.401Z,5.30
2023-03-16T10:54:35.541Z,8.00
2023-03-16T10:57:22.684Z,4.30
2023-03-16T10:59:54.331Z,4.40
2023-03-16T11:02:31.818Z,5.80
2023-03-16T11:05:12.898Z,6.40
2023-03-16T11:07:50.977Z,6.20
2023-03-16T11:10:36.110Z,4.10
2023-03-16T11:13:15.992Z,6.20
2023-03-16T11:15:53.104Z,5.70
2023-03-16T11:18:31.660Z,4.50
2023-03-16T11:21:06.497Z,4.80
2023-03-16T11:23:41.501Z,5.90
2023-03-16T11:26:21.217Z,7.10
2023-03-16T11:29:01.696Z,4.20
2023-03-16T11:31:42.850Z,5.80
2023-03-16T11:34:19.443Z,5.90
2023-03-16T11:36:56.128Z,5.80
2023-03-16T11:39:37.704Z,5.80
2023-03-16T11:42:21.347Z,5.20
2023-03-16T11:44:57.444Z,6.60
2023-03-16T11:47:59.062Z,7.20
2023-03-16T11:53:12.407Z,5.90
2023-03-16T11:55:55.393Z,4.70
2023-03-16T11:58:39.974Z,5.30
2023-03-16T12:01:19.695Z,4.60
2023-03-16T12:04:08.281Z,5.10
2023-03-16T12:06:53.343Z,4.50
2023-03-16T12:09:53.199Z,5.20
2023-03-16T12:12:39.117Z,6.30
2023-03-16T12:15:24.336Z,5.80
2023-03-16T12:17:58.700Z,2.90
2023-03-16T12:20:33.955Z,5.20
2023-03-16T12:23:09.768Z,4.70
2023-03-16T12:25:45.514Z,3.00
2023-03-16T12:28:24.839Z,4.60
2023-03-16T12:31:09.412Z,2.70
2023-03-16T12:33:54.345Z,3.00
2023-03-16T12:36:49.956Z,4.40
2023-03-16T12:39:32.891Z,5.00
2023-03-16T12:42:15.817Z,3.40
2023-03-16T12:44:51.670Z,4.20
2023-03-16T12:47:31.382Z,4.60
2023-03-16T12:50:09.417Z,4.10
2023-03-16T12:52:45.376Z,2.10
2023-03-16T12:55:21.040Z,3.00
2023-03-16T12:57:59.844Z,3.20
2023-03-16T13:00:37.846Z,4.00
2023-03-16T13:03:18.111Z,4.50
2023-03-16T13:05:52.205Z,3.80
2023-03-16T13:08:24.026Z,3.60
2023-03-16T13:11:06.448Z,3.90
2023-03-16T13:13:50.411Z,4.00
2023-03-16T13:16:29.511Z,4.10
2023-03-16T13:19:01.057Z,3.00
2023-03-16T13:21:42.730Z,6.30
2023-03-16T13:24:36.845Z,3.10
2023-03-16T13:27:16.780Z,3.20
2023-03-16T13:29:56.513Z,4.20
2023-03-16T13:32:31.437Z,3.70
2023-03-16T13:35:06.241Z,4.80
2023-03-16T13:37:37.037Z,4.70
2023-03-16T13:40:21.433Z,4.50
2023-03-16T13:42:55.341Z,3.60
2023-03-16T13:45:30.262Z,3.50
2023-03-16T13:48:01.782Z,3.50
2023-03-16T13:50:36.201Z,4.40
2023-03-16T13:53:12.968Z,3.00
2023-03-16T13:55:48.677Z,3.00
2023-03-16T13:58:26.489Z,3.90
2023-03-16T14:01:00.548Z,4.10
2023-03-16T14:03:37.074Z,4.10
2023-03-16T14:06:20.048Z,5.30
2023-03-16T14:08:53.902Z,4.30
2023-03-16T14:11:24.669Z,4.70
2023-03-16T14:13:56.736Z,4.10
2023-03-16T14:16:29.831Z,5.30
2023-03-16T14:19:05.067Z,4.70
2023-03-16T14:21:36.218Z,3.00
2023-03-16T14:24:17.066Z,3.80
2023-03-16T14:26:49.358Z,4.30
2023-03-16T14:29:24.969Z,4.50
2023-03-16T14:31:56.360Z,4.60
2023-03-16T14:34:32.640Z,4.60
2023-03-16T14:37:11.929Z,3.20
2023-03-16T14:39:43.546Z,6.50
2023-03-16T14:42:27.583Z,4.20
2023-03-16T14:44:59.959Z,4.00
2023-03-16T14:47:33.014Z,4.30
2023-03-16T14:50:08.015Z,4.40
2023-03-16T14:52:39.513Z,5.90
2023-03-16T14:55:16.942Z,4.80
2023-03-16T14:57:49.316Z,3.60
2023-03-16T15:00:22.366Z,5.20
2023-03-16T15:03:00.842Z,5.70
2023-03-16T15:05:37.648Z,5.20
2023-03-16T15:08:15.777Z,3.00
2023-03-16T15:10:47.419Z,3.50
2023-03-16T15:13:34.796Z,4.40
2023-03-16T15:16:06.313Z,5.60
2023-03-16T15:18:37.834Z,5.40
2023-03-16T15:21:13.401Z,4.30
2023-03-16T15:23:45.085Z,4.40
2023-03-16T15:26:19.265Z,4.40
2023-03-16T15:28:49.958Z,3.80
2023-03-16T15:31:23.540Z,5.90
2023-03-16T15:33:58.466Z,4.40
2023-03-16T15:36:32.056Z,4.50
2023-03-16T15:39:08.360Z,4.40
2023-03-16T15:41:47.431Z,4.90
2023-03-16T15:44:18.535Z,5.00
2023-03-16T15:46:49.225Z,3.80
2023-03-16T15:49:19.973Z,4.80
2023-03-16T15:51:51.070Z,4.10
2023-03-16T15:54:22.150Z,5.60
2023-03-16T15:56:54.764Z,2.90
2023-03-16T15:59:27.188Z,4.10
2023-03-16T16:01:57.891Z,4.80
2023-03-16T16:04:28.798Z,3.90
2023-03-16T16:07:02.196Z,4.50
2023-03-16T16:09:35.394Z,3.10
2023-03-16T16:12:06.842Z,3.60
2023-03-16T16:14:37.555Z,4.30
2023-03-16T16:17:15.821Z,4.90
2023-03-16T16:19:46.537Z,2.80
2023-03-16T16:22:17.566Z,3.50
2023-03-16T16:24:48.659Z,3.50
2023-03-16T16:27:19.566Z,4.00
2023-03-16T16:29:50.570Z,4.90
2023-03-16T16:32:29.839Z,4.50
2023-03-16T16:35:04.596Z,3.10
2023-03-16T16:37:35.567Z,5.30
2023-03-16T16:40:07.442Z,4.90
2023-03-16T16:42:37.913Z,4.50
2023-03-16T16:45:14.694Z,5.50
2023-03-16T16:47:45.476Z,4.10
2023-03-16T16:50:22.749Z,3.00
2023-03-16T16:52:55.279Z,5.40
2023-03-16T16:55:27.653Z,4.00
2023-03-16T16:57:58.603Z,4.50
2023-03-16T17:00:30.007Z,3.40
2023-03-16T17:05:31.700Z,6.30
2023-03-16T17:08:04.312Z,3.80
2023-03-16T17:10:35.571Z,4.90
2023-03-16T17:13:07.520Z,5.90
2023-03-16T17:15:38.253Z,4.20
2023-03-16T17:18:14.061Z,5.90
2023-03-16T17:20:45.051Z,6.60
2023-03-16T17:23:29.730Z,4.90
2023-03-16T17:26:02.901Z,4.80
2023-03-16T17:28:38.725Z,6.50
2023-03-16T17:31:09.630Z,3.90
2023-03-16T17:33:40.274Z,5.10
2023-03-16T17:36:15.443Z,4.50
2023-03-16T17:38:46.513Z,5.10
2023-03-16T17:41:25.747Z,6.80
2023-03-16T17:43:58.478Z,5.10
2023-03-16T17:46:31.555Z,5.20
2023-03-16T17:49:12.213Z,6.00
2023-03-16T17:51:44.049Z,4.10
2023-03-16T17:54:15.016Z,5.10
2023-03-16T17:56:46.614Z,4.70
2023-03-16T17:59:20.004Z,7.60
2023-03-16T18:01:51.309Z,3.90
2023-03-16T18:06:52.807Z,5.60
2023-03-16T18:09:23.376Z,5.30
2023-03-16T18:11:54.297Z,5.10
2023-03-16T18:14:35.284Z,4.70
2023-03-16T18:17:27.844Z,4.80
2023-03-16T18:19:59.065Z,4.80
2023-03-16T18:22:29.900Z,6.30
2023-03-16T18:25:02.045Z,5.50
2023-03-16T18:27:32.847Z,5.60
2023-03-16T18:30:03.615Z,4.50
2023-03-16T18:32:34.301Z,5.90
2023-03-16T18:35:05.615Z,5.80
2023-03-16T18:40:06.621Z,5.70
2023-03-16T18:42:37.277Z,6.30
2023-03-16T18:45:11.675Z,5.80
2023-03-16T18:47:45.685Z,7.70
2023-03-16T18:50:30.236Z,5.50
2023-03-16T18:53:00.777Z,6.90
2023-03-16T18:55:32.663Z,6.20
2023-03-16T18:58:03.228Z,4.20
2023-03-16T19:00:35.273Z,7.40
2023-03-16T19:03:09.128Z,5.90
2023-03-16T19:05:40.768Z,5.30
2023-03-16T19:08:14.432Z,4.60
2023-03-16T19:10:49.977Z,6.40
2023-03-16T19:13:24.745Z,6.20
2023-03-16T19:15:57.841Z,5.50
2023-03-16T19:18:29.357Z,8.30
2023-03-16T19:23:32.547Z,5.30
2023-03-16T19:26:03.550Z,7.70
2023-03-16T19:28:36.782Z,7.00
2023-03-16T19:31:18.014Z,8.10
2023-03-16T19:33:49.792Z,7.50
2023-03-16T19:36:23.344Z,6.40
2023-03-16T19:38:54.815Z,5.30
2023-03-16T19:44:03.647Z,6.90
2023-03-16T19:46:34.417Z,6.10
2023-03-16T19:49:08.731Z,7.50
2023-03-16T19:51:39.427Z,6.50
2023-03-16T19:54:12.979Z,7.30
2023-03-16T19:56:43.630Z,6.30
2023-03-16T19:59:14.608Z,6.90
2023-03-16T20:01:46.072Z,5.90
2023-03-16T20:04:21.764Z,9.30
2023-03-16T20:06:53.613Z,5.90
2023-03-16T20:09:24.429Z,6.30
2023-03-16T20:11:54.935Z,6.50
2023-03-16T20:14:32.436Z,7.50
2023-03-16T20:17:03.251Z,7.00
2023-03-16T20:19:34.271Z,7.10
2023-03-16T20:22:07.485Z,5.80
2023-03-16T20:24:38.677Z,6.90
2023-03-16T20:27:12.695Z,7.30
2023-03-16T20:29:43.871Z,7.90
2023-03-16T20:32:20.633Z,6.20
2023-03-16T20:34:53.669Z,5.90
2023-03-16T20:37:27.087Z,7.60
2023-03-16T20:39:59.308Z,6.40
2023-03-16T20:42:32.801Z,7.70
2023-03-16T20:45:06.136Z,6.50
2023-03-16T20:47:37.057Z,6.40
2023-03-16T20:50:18.005Z,6.70
2023-03-16T20:52:49.147Z,7.50
2023-03-16T20:55:22.692Z,7.00
2023-03-16T20:57:55.405Z,5.00
2023-03-16T21:00:33.374Z,7.20
2023-03-16T21:03:07.789Z,7.10
2023-03-16T21:05:38.591Z,6.50
2023-03-16T21:08:12.751Z,5.80
2023-03-16T21:10:43.753Z,9.50
2023-03-16T21:13:21.951Z,6.50
2023-03-16T21:15:53.129Z,7.60
2023-03-16T21:18:24.038Z,7.40
2023-03-16T21:20:56.332Z,7.30
2023-03-16T21:23:27.086Z,7.80
2023-03-16T21:26:00.775Z,6.50
2023-03-16T21:28:33.830Z,5.40
2023-03-16T21:31:06.817Z,6.40
2023-03-16T21:33:39.969Z,6.20
2023-03-16T21:36:17.137Z,7.20
2023-03-16T21:38:48.978Z,9.00
2023-03-16T21:41:20.401Z,6.90
2023-03-16T21:46:22.884Z,6.70
2023-03-16T21:48:56.268Z,7.00
2023-03-16T21:51:31.435Z,5.80
2023-03-16T21:54:02.371Z,6.80
2023-03-16T21:56:33.027Z,7.00
2023-03-16T21:59:03.723Z,7.60
2023-03-16T22:01:42.848Z,5.30
2023-03-16T22:04:21.670Z,5.80
2023-03-16T22:06:52.378Z,7.10
2023-03-16T22:09:25.008Z,6.90
2023-03-16T22:11:56.052Z,6.80
2023-03-16T22:14:27.238Z,6.80
2023-03-16T22:19:28.376Z,8.10
2023-03-16T22:24:30.496Z,5.80
2023-03-16T22:27:01.594Z,7.90
2023-03-16T22:29:34.044Z,7.50
2023-03-16T22:32:08.584Z,6.40
2023-03-16T22:34:45.016Z,5.20
2023-03-16T22:37:20.369Z,7.30
2023-03-16T22:39:52.054Z,6.70
2023-03-16T22:42:32.843Z,6.90
2023-03-16T22:45:03.469Z,8.90
2023-03-16T22:47:35.240Z,7.90
2023-03-16T22:50:07.391Z,6.70
2023-03-16T22:52:38.800Z,5.50
2023-03-16T22:57:39.567Z,5.20
2023-03-16T23:00:14.524Z,6.50
2023-03-16T23:02:44.907Z,6.90
2023-03-16T23:05:24.358Z,6.90
2023-03-16T23:07:55.567Z,6.10
2023-03-16T23:10:29.648Z,7.60
2023-03-16T23:13:02.232Z,7.60
2023-03-16T23:15:33.341Z,5.10
2023-03-16T23:18:03.920Z,7.30
2023-03-16T23:20:34.663Z,6.40
2023-03-16T23:23:05.604Z,6.70
2023-03-16T23:25:37.705Z,6.00
2023-03-16T23:28:08.977Z,6.40
2023-03-16T23:30:39.839Z,7.40
2023-03-16T23:33:13.320Z,6.60
2023-03-16T23:35:46.518Z,6.70
2023-03-16T23:38:17.313Z,6.30
2023-03-16T23:40:49.477Z,5.90
2023-03-16T23:43:20.234Z,6.50
2023-03-16T23:45:51.253Z,6.30
2023-03-16T23:48:23.632Z,5.60
2023-03-16T23:50:57.328Z,6.10
2023-03-16T23:53:27.951Z,6.60
2023-03-16T23:55:58.846Z,6.10
2023-03-16T23:58:29.342Z,7.70
